Time;durP1;ratioP1;P1;durP2;ratioP2;P2;SDS_P1;SDS_P2;PMS_P1;PMS_P2;Temp;Humidity;BMP_temperature;BMP_pressure;BME280_temperature;BME280_humidity;BME280_pressure;Samples;Min_cycle;Max_cycle;Signal;HPM_P1;HPM_P2
2023/08/20 00:00:10;;;;;;;;;;;;;;;19.44;97.41;102150.78;20448538;28;19935;-62
2023/08/20 00:10:31;;;;;;;;;;;;;;;19.25;96.61;102149.88;20477254;28;19927;-62
2023/08/20 00:20:53;;;;;;;;;;;;;;;19.22;97.61;102144.78;20468103;28;19958;-63
2023/08/20 00:31:15;;;;;;;;;;;;;;;19.14;96.73;102152.16;20458177;28;19931;-61
2023/08/20 00:41:36;;;;;;;;;;;;;;;19.08;97.27;102148.03;20458516;28;20021;-62
2023/08/20 00:51:58;;;;;;;;;;;;;;;18.97;97.68;102150.28;20511052;28;19927;-62
2023/08/20 01:02:20;;;;;;;;;;;;;;;18.96;98.11;102149.41;20463441;28;20017;-63
2023/08/20 01:12:43;;;;;;;;;;;;;;;18.87;97.13;102143.69;20453210;28;19933;-62
2023/08/20 01:23:29;;;;;;;;;;;;;;;18.76;97.31;102146.78;20477265;28;19926;-62
2023/08/20 01:33:50;;;;;;;;;;;;;;;18.69;97.85;102155.84;20448326;28;19934;-62
2023/08/20 01:44:12;;;;;;;;;;;;;;;18.64;96.88;102165.66;20461428;28;19938;-62
2023/08/20 01:54:33;;;;;;;;;;;;;;;18.58;97.89;102160.69;20462060;28;19931;-62
2023/08/20 02:04:55;;;;;;;;;;;;;;;18.51;97.46;102176.72;20446341;28;19958;-63
2023/08/20 02:15:16;;;;;;;;;;;;;;;18.36;98.93;102167.69;20460789;28;19942;-62
2023/08/20 02:25:38;;;;;;;;;;;;;;;18.31;98.04;102182.75;20458500;28;20029;-61
2023/08/20 02:36:03;;;;;;;;;;;;;;;18.25;97.28;102205.72;20447734;28;20020;-62
2023/08/20 02:46:24;;;;;;;;;;;;;;;18.19;98.35;102191.09;20456913;28;20375;-62
2023/08/20 02:56:46;;;;;;;;;;;;;;;18.12;98.88;102200.13;20460486;28;20020;-63
2023/08/20 03:07:07;;;;;;;;;;;;;;;18.06;98.58;102210.81;20448223;28;20489;-63
2023/08/20 03:17:29;;;;;;;;;;;;;;;17.99;99.50;102204.97;20453994;28;19930;-62
2023/08/20 03:27:51;;;;;;;;;;;;;;;17.96;99.60;102199.00;20443356;28;19935;-63
2023/08/20 03:38:13;;;;;;;;;;;;;;;17.95;99.42;102220.88;20438844;28;19926;-62
2023/08/20 03:48:34;;;;;;;;;;;;;;;17.91;99.35;102219.25;20464720;28;19953;-62
2023/08/20 03:58:56;;;;;;;;;;;;;;;17.86;99.19;102218.59;20440323;28;19937;-62
2023/08/20 04:09:17;;;;;;;;;;;;;;;17.75;99.17;102186.72;20455102;28;20435;-62
2023/08/20 04:19:38;;;;;;;;;;;;;;;17.67;99.38;102173.91;20449697;28;19926;-62
2023/08/20 04:30:00;;;;;;;;;;;;;;;17.53;99.02;102188.44;20444351;28;19928;-62
2023/08/20 04:40:22;;;;;;;;;;;;;;;17.58;100.00;102199.59;20476235;28;19933;-62
2023/08/20 04:50:43;;;;;;;;;;;;;;;17.59;100.00;102210.00;20438494;28;19934;-62
2023/08/20 05:01:05;;;;;;;;;;;;;;;17.54;99.13;102226.81;20457818;28;19943;-62
2023/08/20 05:11:28;;;;;;;;;;;;;;;17.65;100.00;102250.84;20465334;28;19934;-62
2023/08/20 05:21:50;;;;;;;;;;;;;;;17.56;99.20;102257.22;20473114;28;19927;-62
2023/08/20 05:32:11;;;;;;;;;;;;;;;17.64;100.00;102259.56;20476917;28;19932;-62
2023/08/20 05:42:33;;;;;;;;;;;;;;;17.80;100.00;102255.50;20454418;28;19930;-62
2023/08/20 05:52:54;;;;;;;;;;;;;;;17.86;99.66;102263.13;20459661;28;19941;-62
2023/08/20 06:03:16;;;;;;;;;;;;;;;18.06;100.00;102255.38;20463154;28;19931;-62
2023/08/20 06:13:38;;;;;;;;;;;;;;;18.25;100.00;102253.75;20461347;28;19927;-62
2023/08/20 06:24:00;;;;;;;;;;;;;;;18.46;99.95;102255.56;20468733;28;19931;-62
2023/08/20 06:34:22;;;;;;;;;;;;;;;18.75;98.70;102260.47;20453249;28;20045;-62
2023/08/20 06:44:43;;;;;;;;;;;;;;;19.00;98.86;102261.19;20461813;28;19927;-62
2023/08/20 06:55:05;;;;;;;;;;;;;;;19.34;97.45;102265.88;20461219;28;19931;-62
2023/08/20 07:05:26;;;;;;;;;;;;;;;19.61;96.28;102275.16;20455383;28;19926;-63
2023/08/20 07:15:48;;;;;;;;;;;;;;;19.87;95.36;102268.75;20459165;28;20005;-62
2023/08/20 07:26:12;;;;;;;;;;;;;;;20.22;93.70;102268.00;20456803;28;20009;-62
2023/08/20 07:36:33;;;;;;;;;;;;;;;20.40;93.58;102282.91;20459466;28;20160;-62
2023/08/20 07:46:55;;;;;;;;;;;;;;;20.59;90.71;102282.88;20460546;28;21391;-62
2023/08/20 07:57:16;;;;;;;;;;;;;;;20.65;90.94;102283.47;20461235;28;19930;-62
2023/08/20 08:07:38;;;;;;;;;;;;;;;20.75;91.91;102289.09;20456044;28;19934;-62
2023/08/20 08:17:59;;;;;;;;;;;;;;;20.84;92.58;102281.63;20441279;28;19937;-62
2023/08/20 08:28:21;;;;;;;;;;;;;;;21.13;88.35;102284.63;20452526;28;19926;-62
2023/08/20 08:38:43;;;;;;;;;;;;;;;21.39;85.73;102290.25;20456081;28;19931;-62
2023/08/20 08:49:05;;;;;;;;;;;;;;;21.67;86.18;102282.63;20465876;28;19971;-62
2023/08/20 08:59:26;;;;;;;;;;;;;;;21.94;84.63;102290.84;20469990;28;19950;-62
2023/08/20 09:09:49;;;;;;;;;;;;;;;22.09;85.60;102294.44;20471280;28;19935;-62
2023/08/20 09:20:11;;;;;;;;;;;;;;;22.36;83.13;102293.78;20460427;28;19926;-62
2023/08/20 09:30:32;;;;;;;;;;;;;;;22.51;82.76;102306.13;20467033;28;19938;-62
2023/08/20 09:40:56;;;;;;;;;;;;;;;22.64;81.89;102299.25;20460370;28;20012;-62
2023/08/20 09:51:24;;;;;;;;;;;;;;;22.78;82.18;102293.22;20479376;28;19927;-62
2023/08/20 10:01:47;;;;;;;;;;;;;;;22.98;80.50;102299.03;20461418;28;20335;-62
2023/08/20 10:12:09;;;;;;;;;;;;;;;23.28;79.76;102306.94;20462253;28;19938;-62
2023/08/20 10:22:41;;;;;;;;;;;;;;;23.39;79.48;102293.97;20456399;28;20407;-63
2023/08/20 10:33:03;;;;;;;;;;;;;;;23.82;79.97;102286.94;20450943;28;19972;-63
2023/08/20 10:43:28;;;;;;;;;;;;;;;23.98;77.68;102287.66;20455878;28;19930;-63
2023/08/20 10:53:57;;;;;;;;;;;;;;;24.31;78.59;102277.63;20477082;28;20164;-63
2023/08/20 11:04:21;;;;;;;;;;;;;;;24.81;76.30;102275.19;20452873;28;20469;-62
2023/08/20 11:14:42;;;;;;;;;;;;;;;25.09;75.45;102286.63;20466074;28;19927;-62
2023/08/20 11:25:04;;;;;;;;;;;;;;;25.25;73.04;102280.19;20461926;28;20264;-63
2023/08/20 11:35:25;;;;;;;;;;;;;;;25.25;71.47;102279.34;20457197;28;19934;-63
2023/08/20 11:45:48;;;;;;;;;;;;;;;25.23;71.59;102278.59;20456593;28;19927;-62
2023/08/20 11:56:13;;;;;;;;;;;;;;;25.44;72.55;102269.19;20439390;28;19926;-63
2023/08/20 12:06:37;;;;;;;;;;;;;;;25.77;68.07;102266.81;20472022;28;21089;-62
2023/08/20 12:16:59;;;;;;;;;;;;;;;25.95;70.24;102254.91;20473444;28;20288;-62
2023/08/20 12:27:20;;;;;;;;;;;;;;;25.70;69.01;102255.81;20457024;28;20021;-63
2023/08/20 12:37:42;;;;;;;;;;;;;;;25.90;63.91;102254.38;20463118;28;19930;-62
2023/08/20 12:48:04;;;;;;;;;;;;;;;25.96;69.85;102243.34;20464083;28;19935;-63
2023/08/20 12:58:25;;;;;;;;;;;;;;;25.95;69.48;102244.28;20462386;28;19931;-62
2023/08/20 13:08:47;;;;;;;;;;;;;;;26.01;67.23;102243.84;20469204;28;19933;-63
2023/08/20 13:19:09;;;;;;;;;;;;;;;26.17;60.75;102233.03;20459481;28;19934;-62
2023/08/20 13:29:30;;;;;;;;;;;;;;;26.19;57.96;102233.75;20455848;28;19934;-63
2023/08/20 13:39:52;;;;;;;;;;;;;;;26.35;66.44;102232.50;20472442;28;19982;-62
2023/08/20 13:50:13;;;;;;;;;;;;;;;26.37;61.50;102241.19;20465874;28;19950;-63
2023/08/20 14:00:35;;;;;;;;;;;;;;;26.24;62.41;102227.16;20461783;28;19926;-62
2023/08/20 14:10:56;;;;;;;;;;;;;;;26.29;54.26;102232.97;20462693;28;19931;-62
2023/08/20 14:21:18;;;;;;;;;;;;;;;26.34;64.10;102237.94;20461064;28;19931;-62
2023/08/20 14:31:39;;;;;;;;;;;;;;;26.28;63.15;102231.25;20458097;28;19927;-62
2023/08/20 14:42:02;;;;;;;;;;;;;;;26.20;63.03;102233.66;20446489;28;19937;-62
2023/08/20 14:52:23;;;;;;;;;;;;;;;26.33;61.16;102234.44;20448684;28;20543;-63
2023/08/20 15:02:45;;;;;;;;;;;;;;;26.10;63.00;102232.59;20459076;28;20017;-63
2023/08/20 15:13:07;;;;;;;;;;;;;;;26.25;60.01;102228.84;20460077;28;19987;-63
2023/08/20 15:23:29;;;;;;;;;;;;;;;26.31;60.90;102236.38;20455744;28;19991;-63
2023/08/20 15:33:51;;;;;;;;;;;;;;;26.25;61.30;102225.31;20442468;28;19927;-62
2023/08/20 15:44:13;;;;;;;;;;;;;;;26.48;59.43;102216.53;20451368;28;19927;-63
2023/08/20 15:54:34;;;;;;;;;;;;;;;26.37;60.56;102208.50;20463461;28;20015;-63
2023/08/20 16:04:58;;;;;;;;;;;;;;;26.39;61.59;102202.09;20472274;28;20353;-63
2023/08/20 16:15:19;;;;;;;;;;;;;;;26.20;63.97;102212.41;20464656;28;19933;-63
2023/08/20 16:25:42;;;;;;;;;;;;;;;26.17;63.16;102209.97;20443342;28;19928;-63
2023/08/20 16:36:04;;;;;;;;;;;;;;;26.38;62.98;102203.09;20455383;28;19937;-63
2023/08/20 16:46:25;;;;;;;;;;;;;;;26.16;64.90;102200.31;20451043;28;19926;-63
2023/08/20 16:56:47;;;;;;;;;;;;;;;26.16;61.51;102205.63;20476782;28;20571;-63
2023/08/20 17:07:09;;;;;;;;;;;;;;;25.98;63.45;102220.19;20480611;28;19927;-63
2023/08/20 17:17:30;;;;;;;;;;;;;;;25.80;64.31;102209.09;20470727;28;20291;-63
2023/08/20 17:27:52;;;;;;;;;;;;;;;25.44;69.68;102221.44;20463170;28;19926;-63
2023/08/20 17:38:14;;;;;;;;;;;;;;;24.93;72.61;102209.97;20457214;28;19931;-63
2023/08/20 17:48:36;;;;;;;;;;;;;;;24.63;73.88;102239.31;20469259;28;20031;-63
2023/08/20 17:58:57;;;;;;;;;;;;;;;24.30;74.82;102230.94;20466172;28;19952;-63
2023/08/20 18:09:19;;;;;;;;;;;;;;;24.13;75.09;102241.78;20473368;28;19934;-63
2023/08/20 18:19:40;;;;;;;;;;;;;;;23.94;75.34;102243.84;20464526;28;19926;-63
2023/08/20 18:30:04;;;;;;;;;;;;;;;23.74;75.52;102257.47;20458326;28;19934;-63
2023/08/20 18:40:25;;;;;;;;;;;;;;;23.55;76.23;102275.41;20465187;28;19942;-63
2023/08/20 18:50:48;;;;;;;;;;;;;;;23.38;77.18;102284.38;20466656;28;20025;-64
2023/08/20 19:01:10;;;;;;;;;;;;;;;23.19;78.09;102309.28;20461679;28;19930;-63
2023/08/20 19:11:32;;;;;;;;;;;;;;;23.06;78.65;102321.50;20465858;28;20580;-63
2023/08/20 19:21:53;;;;;;;;;;;;;;;22.94;79.50;102331.84;20464194;28;20637;-63
2023/08/20 19:32:16;;;;;;;;;;;;;;;22.87;80.29;102340.22;20478061;28;19930;-63
2023/08/20 19:42:37;;;;;;;;;;;;;;;22.69;80.54;102336.81;20465297;28;20058;-63
2023/08/20 19:52:59;;;;;;;;;;;;;;;22.55;81.32;102334.09;20454414;28;20390;-63
2023/08/20 20:03:21;;;;;;;;;;;;;;;22.39;80.44;102351.69;20447926;28;19927;-63
2023/08/20 20:13:42;;;;;;;;;;;;;;;22.26;80.75;102347.16;20471089;28;19926;-63
2023/08/20 20:24:04;;;;;;;;;;;;;;;22.12;80.67;102358.47;20466926;28;20649;-63
2023/08/20 20:34:25;;;;;;;;;;;;;;;21.98;81.29;102366.25;20471641;28;19953;-63
2023/08/20 20:44:47;;;;;;;;;;;;;;;21.86;81.94;102372.16;20468688;28;20111;-63
2023/08/20 20:55:08;;;;;;;;;;;;;;;21.76;81.77;102377.03;20456934;28;19958;-63
2023/08/20 21:05:30;;;;;;;;;;;;;;;21.65;82.37;102382.00;20472174;28;20507;-63
2023/08/20 21:15:51;;;;;;;;;;;;;;;21.54;82.79;102376.41;20461892;28;19926;-63
2023/08/20 21:26:13;;;;;;;;;;;;;;;21.41;83.17;102375.31;20458353;28;19932;-63
2023/08/20 21:36:34;;;;;;;;;;;;;;;21.25;84.14;102384.06;20453540;28;19931;-63
2023/08/20 21:46:56;;;;;;;;;;;;;;;21.15;84.58;102372.31;20462059;28;19931;-63
2023/08/20 21:57:18;;;;;;;;;;;;;;;21.05;84.94;102379.78;20458220;28;20303;-63
2023/08/20 22:07:42;;;;;;;;;;;;;;;21.00;85.00;102374.72;20471961;28;19941;-63
2023/08/20 22:18:04;;;;;;;;;;;;;;;20.92;84.98;102384.75;20456287;28;20474;-63
2023/08/20 22:28:25;;;;;;;;;;;;;;;20.71;86.08;102377.03;20477154;28;20009;-63
2023/08/20 22:38:47;;;;;;;;;;;;;;;20.63;86.96;102379.16;20478284;28;19936;-63
2023/08/20 22:49:08;;;;;;;;;;;;;;;20.54;87.27;102363.81;20453345;28;19934;-65
2023/08/20 22:59:30;;;;;;;;;;;;;;;20.45;87.35;102351.97;20456630;28;19926;-63
2023/08/20 23:09:51;;;;;;;;;;;;;;;20.29;88.16;102347.47;20458496;28;19949;-63
2023/08/20 23:20:13;;;;;;;;;;;;;;;20.14;88.55;102345.50;20461415;28;19930;-63
2023/08/20 23:30:35;;;;;;;;;;;;;;;20.04;89.82;102347.69;20456333;28;19934;-63
2023/08/20 23:40:56;;;;;;;;;;;;;;;20.01;89.58;102337.31;20459056;28;19927;-63
2023/08/20 23:51:19;;;;;;;;;;;;;;;19.90;89.30;102357.97;20453468;28;20474;-63
